createdAt,value
2023-03-15T00:01:33.267Z,15257.56
2023-03-15T00:05:36.643Z,15247.34
2023-03-15T00:09:39.400Z,15257.56
2023-03-15T00:13:40.964Z,15241.22
2023-03-15T00:17:42.542Z,15235.09
2023-03-15T00:21:44.018Z,15245.31
2023-03-15T00:25:48.075Z,15247.34
2023-03-15T00:29:49.537Z,15245.31
2023-03-15T00:33:52.773Z,15255.53
2023-03-15T00:37:55.078Z,15251.44
2023-03-15T00:41:57.841Z,15237.13
2023-03-15T00:45:59.716Z,15245.31
2023-03-15T00:50:01.207Z,15249.41
2023-03-15T00:54:03.447Z,15249.41
2023-03-15T00:58:06.176Z,15220.78
2023-03-15T01:02:08.130Z,15208.50
2023-03-15T01:06:12.020Z,15216.69
2023-03-15T01:10:14.810Z,15233.03
2023-03-15T01:14:18.041Z,15224.88
2023-03-15T01:18:19.483Z,15228.97
2023-03-15T01:22:22.059Z,15220.78
2023-03-15T01:26:23.803Z,15251.44
2023-03-15T01:30:26.827Z,15214.66
2023-03-15T01:34:28.280Z,15237.13
2023-03-15T01:38:30.878Z,15237.13
2023-03-15T01:42:32.483Z,15216.69
2023-03-15T01:46:37.851Z,15206.47
2023-03-15T01:50:39.562Z,15188.06
2023-03-15T01:54:46.129Z,15177.84
2023-03-15T01:58:48.365Z,15202.38
2023-03-15T02:02:53.633Z,15177.84
2023-03-15T02:06:58.620Z,15196.25
2023-03-15T02:11:04.072Z,15200.34
2023-03-15T02:15:07.184Z,15171.72
2023-03-15T02:19:20.643Z,15155.38
2023-03-15T02:23:23.725Z,15210.56
2023-03-15T02:27:30.620Z,15179.91
2023-03-15T02:31:33.929Z,15196.25
2023-03-15T02:35:35.571Z,15196.25
2023-03-15T02:39:37.000Z,15218.75
2023-03-15T02:43:42.465Z,15228.97
2023-03-15T02:47:45.424Z,15190.13
2023-03-15T02:51:46.915Z,15214.66
2023-03-15T02:55:48.377Z,15186.03
2023-03-15T02:59:51.202Z,15200.34
2023-03-15T03:03:52.605Z,15186.03
2023-03-15T03:07:54.341Z,15220.78
2023-03-15T03:11:55.762Z,15226.91
2023-03-15T03:15:58.836Z,15208.50
2023-03-15T03:20:00.258Z,15190.13
2023-03-15T03:24:01.966Z,15214.66
2023-03-15T03:28:03.434Z,15220.78
2023-03-15T03:32:06.836Z,15228.97
2023-03-15T03:36:08.430Z,15202.38
2023-03-15T03:40:11.524Z,15198.28
2023-03-15T03:44:13.054Z,15216.69
2023-03-15T03:48:15.901Z,15208.50
2023-03-15T03:52:17.619Z,15226.91
2023-03-15T03:56:18.997Z,15212.59
2023-03-15T04:00:21.353Z,15206.47
2023-03-15T04:04:24.368Z,15224.88
2023-03-15T04:08:26.840Z,15220.78
2023-03-15T04:12:28.273Z,15212.59
2023-03-15T04:16:29.781Z,15216.69
2023-03-15T04:20:32.845Z,15208.50
2023-03-15T04:24:34.641Z,15208.50
2023-03-15T04:28:36.136Z,15212.59
2023-03-15T04:32:38.286Z,15216.69
2023-03-15T04:36:41.276Z,15214.66
2023-03-15T04:40:42.714Z,15216.69
2023-03-15T04:44:44.200Z,15241.22
2023-03-15T04:48:45.642Z,15204.44
2023-03-15T04:52:48.760Z,15208.50
2023-03-15T04:56:51.194Z,15206.47
2023-03-15T05:00:53.166Z,15192.16
2023-03-15T05:04:54.644Z,15228.97
2023-03-15T05:08:57.487Z,15200.34
2023-03-15T05:13:00.835Z,15222.81
2023-03-15T05:17:02.306Z,15188.06
2023-03-15T05:21:04.226Z,15179.91
2023-03-15T05:25:09.020Z,15192.16
2023-03-15T05:29:10.666Z,15192.16
2023-03-15T05:33:12.048Z,15235.09
2023-03-15T05:37:13.465Z,15218.75
2023-03-15T05:41:16.807Z,15204.44
2023-03-15T05:45:19.723Z,15208.50
2023-03-15T05:49:21.633Z,15194.22
2023-03-15T05:53:23.072Z,15200.34
2023-03-15T05:57:25.922Z,15204.44
2023-03-15T06:01:27.344Z,15188.06
2023-03-15T06:05:28.824Z,15216.69
2023-03-15T06:09:30.469Z,15210.56
2023-03-15T06:13:33.519Z,15188.06
2023-03-15T06:17:34.942Z,15226.91
2023-03-15T06:21:36.329Z,15186.03
2023-03-15T06:25:37.722Z,15204.44
2023-03-15T06:29:40.706Z,15247.34
2023-03-15T06:33:42.220Z,15216.69
2023-03-15T06:37:43.944Z,15181.94
2023-03-15T06:41:45.369Z,15198.28
2023-03-15T06:45:48.630Z,15220.78
2023-03-15T06:49:50.086Z,15196.25
2023-03-15T06:53:52.174Z,15183.97
2023-03-15T06:57:53.839Z,15196.25
2023-03-15T07:01:56.860Z,15206.47
2023-03-15T07:05:58.634Z,15196.25
2023-03-15T07:10:00.285Z,15183.97
2023-03-15T07:14:01.945Z,15208.50
2023-03-15T07:18:05.039Z,15188.06
2023-03-15T07:22:07.010Z,15194.22
2023-03-15T07:26:08.601Z,15192.16
2023-03-15T07:30:11.380Z,15196.25
2023-03-15T07:34:14.363Z,15208.50
2023-03-15T07:38:16.017Z,15167.63
2023-03-15T07:42:17.479Z,15173.75
2023-03-15T07:46:18.984Z,15206.47
2023-03-15T07:50:22.396Z,15224.88
2023-03-15T07:54:23.804Z,15204.44
2023-03-15T07:58:25.370Z,15208.50
2023-03-15T08:02:29.008Z,15183.97
2023-03-15T08:06:33.420Z,15228.97
2023-03-15T08:10:34.878Z,15188.06
2023-03-15T08:14:36.505Z,15208.50
2023-03-15T08:18:37.985Z,15206.47
2023-03-15T08:22:41.291Z,15167.63
2023-03-15T08:26:42.766Z,15218.75
2023-03-15T08:30:44.418Z,15216.69
2023-03-15T08:34:46.255Z,15216.69
2023-03-15T08:38:49.013Z,15212.59
2023-03-15T08:42:50.795Z,15208.50
2023-03-15T08:46:52.545Z,15206.47
2023-03-15T08:50:54.368Z,15208.50
2023-03-15T08:54:57.505Z,15200.34
2023-03-15T08:58:59.188Z,15177.84
2023-03-15T09:03:01.162Z,15196.25
2023-03-15T09:07:02.559Z,15220.78
2023-03-15T09:11:05.765Z,15183.97
2023-03-15T09:15:08.562Z,15237.13
2023-03-15T09:19:10.294Z,15255.53
2023-03-15T09:23:12.170Z,15237.13
2023-03-15T09:27:15.498Z,15239.19
2023-03-15T09:31:17.039Z,15208.50
2023-03-15T09:35:20.384Z,15245.31
2023-03-15T09:39:22.765Z,15241.22
2023-03-15T09:43:54.017Z,15175.81
2023-03-15T09:48:04.281Z,15280.06
2023-03-15T09:52:26.042Z,15273.94
2023-03-15T09:56:32.385Z,15363.88
2023-03-15T10:00:39.821Z,15427.25
2023-03-15T10:04:45.527Z,15484.50
2023-03-15T10:08:47.760Z,15693.03
2023-03-15T10:12:59.636Z,15490.63
2023-03-15T10:17:12.810Z,15447.69
2023-03-15T10:21:30.763Z,15412.94
2023-03-15T10:25:33.058Z,15707.34
2023-03-15T10:29:35.162Z,15809.59
2023-03-15T10:33:38.815Z,15635.78
2023-03-15T10:37:43.144Z,15746.19
2023-03-15T10:41:48.033Z,15619.44
2023-03-15T10:46:00.666Z,15515.16
2023-03-15T10:50:02.445Z,15864.78
2023-03-15T10:54:12.525Z,15836.16
2023-03-15T10:58:21.176Z,15596.94
2023-03-15T11:02:25.237Z,15611.25
2023-03-15T11:06:28.240Z,15862.75
2023-03-15T11:10:35.018Z,15793.22
2023-03-15T11:14:40.981Z,15623.53
2023-03-15T11:18:49.167Z,15596.94
2023-03-15T11:22:52.067Z,15596.94
2023-03-15T11:26:58.980Z,15568.31
2023-03-15T11:31:02.109Z,15596.94
2023-03-15T11:35:06.024Z,15605.13
2023-03-15T11:39:13.038Z,15572.41
2023-03-15T11:43:21.746Z,15648.06
2023-03-15T11:47:37.426Z,15562.19
2023-03-15T11:51:39.994Z,15523.34
2023-03-15T11:55:46.987Z,15529.47
2023-03-15T11:59:49.773Z,15502.91
2023-03-15T12:03:51.507Z,15543.78
2023-03-15T12:08:16.223Z,15572.41
2023-03-15T12:12:44.808Z,15490.63
2023-03-15T12:16:50.651Z,15492.69
2023-03-15T12:21:09.466Z,15433.41
2023-03-15T12:25:14.786Z,15376.16
2023-03-15T12:29:20.678Z,15449.75
2023-03-15T12:33:25.907Z,15599.00
2023-03-15T12:37:40.199Z,15727.81
2023-03-15T12:41:43.963Z,15682.81
2023-03-15T12:45:46.747Z,15625.56
2023-03-15T12:49:50.222Z,15705.31
2023-03-15T12:53:53.317Z,15639.88
2023-03-15T12:57:56.255Z,15637.84
2023-03-15T13:01:59.761Z,15660.31
2023-03-15T13:06:14.065Z,15701.22
2023-03-15T13:10:41.540Z,15648.06
2023-03-15T13:14:50.162Z,15711.44
2023-03-15T13:19:01.221Z,15715.53
2023-03-15T13:23:13.865Z,15721.66
2023-03-15T13:27:29.741Z,15674.63
2023-03-15T13:31:32.264Z,15660.31
2023-03-15T13:35:41.841Z,15776.88
2023-03-15T13:39:56.526Z,15772.78
2023-03-15T13:44:00.866Z,15850.47
2023-03-15T13:48:04.374Z,15885.22
2023-03-15T13:52:06.898Z,15850.47
2023-03-15T13:56:32.685Z,15852.53
2023-03-15T14:00:40.204Z,15821.84
2023-03-15T14:04:45.429Z,15725.75
2023-03-15T14:08:47.881Z,15752.34
2023-03-15T14:12:52.843Z,15770.72
2023-03-15T14:17:05.509Z,15809.59
2023-03-15T14:21:13.662Z,15723.72
2023-03-15T14:25:21.916Z,15797.31
2023-03-15T14:29:29.746Z,15789.13
2023-03-15T14:33:33.516Z,15834.13
2023-03-15T14:37:38.266Z,15832.06
2023-03-15T14:41:39.710Z,15846.38
2023-03-15T14:45:45.579Z,15834.13
2023-03-15T14:49:47.314Z,15868.88
2023-03-15T14:53:52.373Z,15879.09
2023-03-15T14:57:53.820Z,15903.63
2023-03-15T15:01:59.362Z,15875.00
2023-03-15T15:06:02.583Z,15915.91
2023-03-15T15:10:04.578Z,15883.19
2023-03-15T15:14:12.484Z,15862.75
2023-03-15T15:18:16.983Z,15879.09
2023-03-15T15:22:20.181Z,15889.31
2023-03-15T15:26:23.692Z,15872.97
2023-03-15T15:30:25.217Z,15811.63
2023-03-15T15:34:28.195Z,15844.34
2023-03-15T15:38:32.420Z,15825.94
2023-03-15T15:42:34.096Z,15787.09
2023-03-15T15:46:37.040Z,15809.59
2023-03-15T15:50:39.930Z,15801.41
2023-03-15T15:54:41.400Z,15797.31
2023-03-15T15:58:44.418Z,15899.53
2023-03-15T16:02:48.848Z,15877.06
2023-03-15T16:06:54.855Z,15866.84
2023-03-15T16:10:56.330Z,15803.44
2023-03-15T16:14:57.794Z,15766.66
2023-03-15T16:18:59.244Z,15827.97
2023-03-15T16:23:04.092Z,15807.53
2023-03-15T16:27:08.147Z,15676.69
2023-03-15T16:31:09.639Z,15729.84
2023-03-15T16:35:12.779Z,15744.16
2023-03-15T16:39:16.505Z,15605.13
2023-03-15T16:43:18.694Z,15560.16
2023-03-15T16:47:20.592Z,15594.91
2023-03-15T16:51:23.219Z,15629.66
2023-03-15T16:55:28.157Z,15572.41
2023-03-15T16:59:29.873Z,15646.03
2023-03-15T17:03:31.378Z,15564.25
2023-03-15T17:07:35.226Z,15515.16
2023-03-15T17:11:40.840Z,15482.47
2023-03-15T17:15:43.083Z,15507.00
2023-03-15T17:19:44.674Z,15535.63
2023-03-15T17:23:47.468Z,15462.00
2023-03-15T17:27:50.681Z,15496.78
2023-03-15T17:31:52.148Z,15462.00
2023-03-15T17:35:54.113Z,15478.38
2023-03-15T17:39:55.648Z,15494.72
2023-03-15T17:43:58.889Z,15486.53
2023-03-15T17:48:01.882Z,15406.81
2023-03-15T17:52:03.467Z,15421.13
2023-03-15T17:56:06.050Z,15417.03
2023-03-15T18:00:13.022Z,15441.56
2023-03-15T18:04:15.881Z,15449.75
2023-03-15T18:08:20.049Z,15421.13
2023-03-15T18:12:22.341Z,15435.44
2023-03-15T18:16:25.459Z,15386.38
2023-03-15T18:20:26.973Z,15445.66
2023-03-15T18:24:29.016Z,15433.41
2023-03-15T18:28:30.578Z,15445.66
2023-03-15T18:32:33.688Z,15425.22
2023-03-15T18:36:35.126Z,15396.59
2023-03-15T18:40:36.587Z,15394.56
2023-03-15T18:44:38.297Z,15453.84
2023-03-15T18:48:43.313Z,15453.84
2023-03-15T18:52:45.104Z,15470.19
2023-03-15T18:56:46.667Z,15517.22
2023-03-15T19:00:48.295Z,15525.41
2023-03-15T19:04:52.250Z,15468.16
2023-03-15T19:08:53.922Z,15445.66
2023-03-15T19:12:55.387Z,15449.75
2023-03-15T19:16:57.087Z,15443.63
2023-03-15T19:21:00.345Z,15417.03
2023-03-15T19:25:01.760Z,15437.47
2023-03-15T19:29:03.362Z,15400.69
2023-03-15T19:33:05.304Z,15394.56
2023-03-15T19:37:08.535Z,15462.00
2023-03-15T19:41:12.557Z,15433.41
2023-03-15T19:45:14.947Z,15437.47
2023-03-15T19:49:16.793Z,15388.41
2023-03-15T19:53:21.003Z,15449.75
2023-03-15T19:57:22.432Z,15423.16
2023-03-15T20:01:24.113Z,15419.09
2023-03-15T20:05:25.830Z,15464.06
2023-03-15T20:09:28.627Z,15468.16
2023-03-15T20:13:30.187Z,15443.63
2023-03-15T20:17:32.059Z,15474.28
2023-03-15T20:21:33.747Z,15484.50
2023-03-15T20:25:36.616Z,15474.28
2023-03-15T20:29:39.092Z,15513.13
2023-03-15T20:33:42.672Z,15498.81
2023-03-15T20:37:45.088Z,15468.16
2023-03-15T20:41:48.056Z,15498.81
2023-03-15T20:45:54.617Z,15498.81
2023-03-15T20:49:56.259Z,15549.94
2023-03-15T20:53:57.676Z,15507.00
2023-03-15T20:58:00.448Z,15515.16
2023-03-15T21:02:01.852Z,15521.31
2023-03-15T21:06:05.512Z,15533.56
2023-03-15T21:10:08.157Z,15545.84
2023-03-15T21:14:11.831Z,15533.56
2023-03-15T21:18:13.356Z,15521.31
2023-03-15T21:22:15.886Z,15537.66
2023-03-15T21:26:17.585Z,15545.84
2023-03-15T21:30:21.728Z,15529.47
2023-03-15T21:34:24.926Z,15502.91
2023-03-15T21:38:26.840Z,15570.38
2023-03-15T21:42:28.378Z,15531.53
2023-03-15T21:46:31.373Z,15551.97
2023-03-15T21:50:33.169Z,15531.53
2023-03-15T21:54:34.886Z,15584.69
2023-03-15T21:58:36.305Z,15547.88
2023-03-15T22:02:39.280Z,15576.50
2023-03-15T22:06:41.122Z,15564.25
2023-03-15T22:10:42.883Z,15568.31
2023-03-15T22:14:45.890Z,15574.47
2023-03-15T22:18:50.233Z,15578.56
2023-03-15T22:22:52.636Z,15574.47
2023-03-15T22:26:54.294Z,15578.56
2023-03-15T22:30:55.806Z,15582.63
2023-03-15T22:34:58.659Z,15560.16
2023-03-15T22:39:00.426Z,15511.09
2023-03-15T22:43:01.921Z,15549.94
2023-03-15T22:47:03.648Z,15535.63
2023-03-15T22:51:08.394Z,15568.31
2023-03-15T22:55:10.951Z,15551.97
2023-03-15T22:59:12.516Z,15521.31
2023-03-15T23:03:14.079Z,15525.41
2023-03-15T23:07:17.055Z,15531.53
2023-03-15T23:11:18.781Z,15537.66
2023-03-15T23:15:20.345Z,15543.78
2023-03-15T23:19:21.873Z,15549.94
2023-03-15T23:23:24.755Z,15535.63
2023-03-15T23:27:26.450Z,15523.34
2023-03-15T23:31:28.031Z,15519.25
2023-03-15T23:35:29.789Z,15545.84
2023-03-15T23:39:32.529Z,15519.25
2023-03-15T23:43:34.070Z,15545.84
2023-03-15T23:47:35.551Z,15513.13
2023-03-15T23:51:37.011Z,15511.09
2023-03-15T23:55:40.069Z,15511.09
2023-03-15T23:59:42.083Z,15470.19
